»·PEaware :: AAL1663 KDFW-KOKC

AAL1663 :: KDFW-KOKC

FLIGHT INFORMATION

Flight Status: Arrived
Operator:
American Airlines
More flights by this operator :: More flights under this callsign
Pilot: Drew L. (13237)
Aircraft: BOEING 737-800
(B738)
More flights by this aircraft type
Origin: KDFW Dallas-Ft Worth Intl
United States
Destination: KOKC Will Rogers World
United States
More flights between these airports :: More routes between these airports
Route: BLECO8 ZEMMA TSDEL3
File this flight plan on PilotEdge
Remarks: PBN / A1B1C1D1S1S2 DOF / 181009 REG / N806SB OPR / AAL PER / C RMK / TCAS SIMBRIEF
Altitude:
(Current/Filed)
24,000ft
Speed:
(Current/Filed)
408kts
Departed: 09-Oct-18 02:28 PM
Arrived: 09-Oct-18 03:03 PM
Distance/Time
Traveled:
152nm/0:34
Distance/Time
To Go:
Arrived

Flight Plot

Page will automatically refresh every two minutes.

Flight plan parsing failed; only flown route is shown


Map Options




Map Legend


Flown Route
Filed Route
Departure Airport
Arrival Airport
Navaid (VOR, NDB)
Fix

Horizontal Profiles

Position Reports

Time Latitude Longitude Heading Altitude Ground
Speed
09-Oct-18 14:12 32.894878 -97.036492 331 615ft 0kts
09-Oct-18 14:13 32.894878 -97.036492 331 615ft 0kts
09-Oct-18 14:14 32.894878 -97.036492 331 615ft 0kts
09-Oct-18 14:15 32.894878 -97.036492 331 615ft 0kts
09-Oct-18 14:16 32.894878 -97.036492 331 615ft 0kts
09-Oct-18 14:17 32.894878 -97.036492 331 615ft 0kts
09-Oct-18 14:18 32.894878 -97.036492 331 615ft 0kts
09-Oct-18 14:19 32.894878 -97.036492 331 615ft 0kts
09-Oct-18 14:20 32.894366 -97.036168 331 615ft 2kts
09-Oct-18 14:21 32.893897 -97.035872 332 615ft 0kts
09-Oct-18 14:22 32.893897 -97.035872 332 615ft 0kts
09-Oct-18 14:23 32.893897 -97.035872 332 615ft 0kts
09-Oct-18 14:24 32.895193 -97.035225 37 615ft 19kts
09-Oct-18 14:25 32.897557 -97.032083 64 615ft 13kts
09-Oct-18 14:26 32.904455 -97.031813 1 615ft 20kts
09-Oct-18 14:27 32.908499 -97.031784 0 615ft 30kts
09-Oct-18 14:28 32.914753 -97.031764 359 615ft 15kts
09-Oct-18 14:29 32.914981 -97.029817 181 615ft 14kts
09-Oct-18 14:30 32.886887 -97.030274 181 1108ft 178kts
09-Oct-18 14:31 32.835779 -97.026524 143 4366ft 204kts
09-Oct-18 14:32 32.782583 -96.983634 127 7178ft 261kts
09-Oct-18 14:33 32.765176 -96.894982 89 10298ft 307kts
09-Oct-18 14:34 32.812157 -96.803120 25 12130ft 389kts
09-Oct-18 14:35 32.923061 -96.813122 346 13828ft 428kts
09-Oct-18 14:36 33.040795 -96.841826 330 16101ft 438kts
09-Oct-18 14:37 33.149381 -96.912700 326 18186ft 452kts
09-Oct-18 14:38 33.261797 -96.985890 326 20027ft 467kts
09-Oct-18 14:39 33.377440 -97.061209 326 21697ft 479kts
09-Oct-18 14:40 33.507912 -97.104270 359 23108ft 507kts
09-Oct-18 14:41 33.674394 -97.081783 5 23797ft 528kts
09-Oct-18 14:42 33.797118 -97.065373 4 23793ft 532kts
09-Oct-18 14:43 33.944516 -97.046423 4 23787ft 533kts
09-Oct-18 14:44 34.091931 -97.027563 4 23786ft 528kts
09-Oct-18 14:45 34.236318 -97.009048 4 23007ft 503kts
09-Oct-18 14:46 34.368875 -96.996497 351 21845ft 454kts
09-Oct-18 14:47 34.481350 -97.049709 325 19817ft 424kts
09-Oct-18 14:48 34.582190 -97.116085 326 17815ft 401kts
09-Oct-18 14:49 34.678302 -97.178075 326 15916ft 382kts
09-Oct-18 14:50 34.769920 -97.237096 326 14347ft 366kts
09-Oct-18 14:51 34.856425 -97.300252 322 13109ft 342kts
09-Oct-18 14:52 34.934097 -97.359012 321 12129ft 315kts
09-Oct-18 14:53 35.007343 -97.414815 321 10773ft 307kts
09-Oct-18 14:54 35.080650 -97.464708 340 9724ft 297kts
09-Oct-18 14:55 35.165891 -97.472728 355 8557ft 313kts
09-Oct-18 14:56 35.250931 -97.477949 354 7452ft 295kts
09-Oct-18 14:57 35.331529 -97.482184 353 5583ft 309kts
09-Oct-18 14:58 35.416225 -97.487372 358 4435ft 282kts
09-Oct-18 14:59 35.489250 -97.486331 359 4017ft 245kts
09-Oct-18 15:00 35.542459 -97.512983 275 3573ft 206kts
09-Oct-18 15:01 35.550016 -97.576585 246 2897ft 170kts
09-Oct-18 15:02 35.508284 -97.589108 181 2999ft 165kts
09-Oct-18 15:03 35.462452 -97.589019 181 2423ft 157kts
09-Oct-18 15:04 35.422882 -97.589002 180 1643ft 136kts
09-Oct-18 15:05 35.388934 -97.588960 179 1303ft 36kts
09-Oct-18 15:06 35.385594 -97.590422 317 1303ft 13kts
09-Oct-18 15:07 35.390916 -97.590622 0 1303ft 16kts
09-Oct-18 15:08 35.393564 -97.592988 295 1303ft 10kts
09-Oct-18 15:09 35.394466 -97.595583 347 1303ft 0kts
09-Oct-18 15:10 35.394466 -97.595583 347 1303ft 0kts
09-Oct-18 15:11 35.394466 -97.595583 347 1303ft 0kts
09-Oct-18 15:12 35.394466 -97.595583 347 1303ft 0kts
09-Oct-18 15:13 35.394466 -97.595583 347 1303ft 0kts
09-Oct-18 15:14 35.394466 -97.595583 347 1303ft 0kts

Navigation Log

Ident Type
Flight plan parsing failed, navigation log unavailable